sensor_id;sensor_type;location;lat;lon;timestamp;temperature;humidity
51029;DHT22;37054;52.054;8.600;2023-02-15T00:01:44;6.70;56.70
51029;DHT22;37054;52.054;8.600;2023-02-15T00:04:12;6.70;57.00
51029;DHT22;37054;52.054;8.600;2023-02-15T00:06:38;6.70;57.20
51029;DHT22;37054;52.054;8.600;2023-02-15T00:09:04;6.70;57.30
51029;DHT22;37054;52.054;8.600;2023-02-15T00:11:30;6.70;57.10
51029;DHT22;37054;52.054;8.600;2023-02-15T00:14:11;6.70;57.00
51029;DHT22;37054;52.054;8.600;2023-02-15T00:16:37;6.70;56.70
51029;DHT22;37054;52.054;8.600;2023-02-15T00:19:03;6.70;56.70
51029;DHT22;37054;52.054;8.600;2023-02-15T00:21:32;6.70;56.60
51029;DHT22;37054;52.054;8.600;2023-02-15T00:23:58;6.60;56.40
51029;DHT22;37054;52.054;8.600;2023-02-15T00:26:24;6.60;56.30
51029;DHT22;37054;52.054;8.600;2023-02-15T00:28:50;6.60;56.40
51029;DHT22;37054;52.054;8.600;2023-02-15T00:31:15;6.60;56.30
51029;DHT22;37054;52.054;8.600;2023-02-15T00:33:41;6.60;56.30
51029;DHT22;37054;52.054;8.600;2023-02-15T00:36:07;6.50;56.30
51029;DHT22;37054;52.054;8.600;2023-02-15T00:38:34;6.50;56.60
51029;DHT22;37054;52.054;8.600;2023-02-15T00:41:00;6.50;56.80
51029;DHT22;37054;52.054;8.600;2023-02-15T00:43:26;6.50;56.90
51029;DHT22;37054;52.054;8.600;2023-02-15T00:45:52;6.50;57.00
51029;DHT22;37054;52.054;8.600;2023-02-15T00:48:18;6.50;57.10
51029;DHT22;37054;52.054;8.600;2023-02-15T00:50:48;6.50;57.00
51029;DHT22;37054;52.054;8.600;2023-02-15T00:53:14;6.50;56.90
51029;DHT22;37054;52.054;8.600;2023-02-15T00:55:40;6.50;56.60
51029;DHT22;37054;52.054;8.600;2023-02-15T00:58:06;6.40;56.40
51029;DHT22;37054;52.054;8.600;2023-02-15T01:00:32;6.40;56.20
51029;DHT22;37054;52.054;8.600;2023-02-15T01:02:57;6.30;55.90
51029;DHT22;37054;52.054;8.600;2023-02-15T01:05:23;6.30;55.80
51029;DHT22;37054;52.054;8.600;2023-02-15T01:07:49;6.20;55.80
51029;DHT22;37054;52.054;8.600;2023-02-15T01:10:14;6.20;55.90
51029;DHT22;37054;52.054;8.600;2023-02-15T01:12:40;6.20;55.80
51029;DHT22;37054;52.054;8.600;2023-02-15T01:15:06;6.20;55.70
51029;DHT22;37054;52.054;8.600;2023-02-15T01:17:31;6.10;55.60
51029;DHT22;37054;52.054;8.600;2023-02-15T01:19:57;6.10;55.50
51029;DHT22;37054;52.054;8.600;2023-02-15T01:22:24;6.00;55.60
51029;DHT22;37054;52.054;8.600;2023-02-15T01:24:50;6.00;55.80
51029;DHT22;37054;52.054;8.600;2023-02-15T01:27:15;6.00;56.00
51029;DHT22;37054;52.054;8.600;2023-02-15T01:29:41;6.00;56.20
51029;DHT22;37054;52.054;8.600;2023-02-15T01:32:07;5.90;56.20
51029;DHT22;37054;52.054;8.600;2023-02-15T01:34:32;5.90;56.30
51029;DHT22;37054;52.054;8.600;2023-02-15T01:36:58;5.90;56.30
51029;DHT22;37054;52.054;8.600;2023-02-15T01:39:23;5.80;56.20
51029;DHT22;37054;52.054;8.600;2023-02-15T01:41:49;5.80;56.10
51029;DHT22;37054;52.054;8.600;2023-02-15T01:47:00;5.80;55.90
51029;DHT22;37054;52.054;8.600;2023-02-15T01:49:26;5.70;56.00
51029;DHT22;37054;52.054;8.600;2023-02-15T01:51:52;5.70;56.10
51029;DHT22;37054;52.054;8.600;2023-02-15T01:54:20;5.70;56.10
51029;DHT22;37054;52.054;8.600;2023-02-15T01:56:46;5.70;56.10
51029;DHT22;37054;52.054;8.600;2023-02-15T01:59:13;5.60;56.00
51029;DHT22;37054;52.054;8.600;2023-02-15T02:01:43;5.60;56.20
51029;DHT22;37054;52.054;8.600;2023-02-15T02:06:34;5.50;56.50
51029;DHT22;37054;52.054;8.600;2023-02-15T02:09:00;5.50;56.50
51029;DHT22;37054;52.054;8.600;2023-02-15T02:11:26;5.60;56.50
51029;DHT22;37054;52.054;8.600;2023-02-15T02:13:54;5.50;56.50
51029;DHT22;37054;52.054;8.600;2023-02-15T02:16:22;5.50;56.50
51029;DHT22;37054;52.054;8.600;2023-02-15T02:18:59;5.50;56.40
51029;DHT22;37054;52.054;8.600;2023-02-15T02:31:56;5.50;57.00
51029;DHT22;37054;52.054;8.600;2023-02-15T02:34:40;5.50;57.00
51029;DHT22;37054;52.054;8.600;2023-02-15T02:37:12;5.50;57.00
51029;DHT22;37054;52.054;8.600;2023-02-15T02:44:40;5.50;56.60
51029;DHT22;37054;52.054;8.600;2023-02-15T02:47:16;5.40;56.40
51029;DHT22;37054;52.054;8.600;2023-02-15T02:49:44;5.40;56.30
51029;DHT22;37054;52.054;8.600;2023-02-15T02:54:54;5.30;55.80
51029;DHT22;37054;52.054;8.600;2023-02-15T02:57:20;5.30;55.90
51029;DHT22;37054;52.054;8.600;2023-02-15T02:59:48;5.30;55.90
51029;DHT22;37054;52.054;8.600;2023-02-15T03:02:19;5.20;55.80
51029;DHT22;37054;52.054;8.600;2023-02-15T03:04:47;5.20;55.70
51029;DHT22;37054;52.054;8.600;2023-02-15T03:07:16;5.20;55.60
51029;DHT22;37054;52.054;8.600;2023-02-15T03:09:48;5.10;55.70
51029;DHT22;37054;52.054;8.600;2023-02-15T03:15:16;5.10;56.00
51029;DHT22;37054;52.054;8.600;2023-02-15T03:17:43;5.10;56.70
51029;DHT22;37054;52.054;8.600;2023-02-15T03:20:27;5.10;57.20
51029;DHT22;37054;52.054;8.600;2023-02-15T03:23:15;5.20;57.30
51029;DHT22;37054;52.054;8.600;2023-02-15T03:25:49;5.10;57.20
51029;DHT22;37054;52.054;8.600;2023-02-15T03:28:19;5.10;57.00
51029;DHT22;37054;52.054;8.600;2023-02-15T03:30:47;5.10;56.70
51029;DHT22;37054;52.054;8.600;2023-02-15T03:33:14;5.00;56.50
51029;DHT22;37054;52.054;8.600;2023-02-15T03:35:44;5.00;56.60
51029;DHT22;37054;52.054;8.600;2023-02-15T03:38:10;5.00;56.90
51029;DHT22;37054;52.054;8.600;2023-02-15T03:40:43;5.00;57.20
51029;DHT22;37054;52.054;8.600;2023-02-15T03:46:28;5.00;57.50
51029;DHT22;37054;52.054;8.600;2023-02-15T03:49:15;5.00;57.40
51029;DHT22;37054;52.054;8.600;2023-02-15T03:51:43;5.00;57.30
51029;DHT22;37054;52.054;8.600;2023-02-15T03:54:12;5.00;57.30
51029;DHT22;37054;52.054;8.600;2023-02-15T03:56:40;5.00;57.10
51029;DHT22;37054;52.054;8.600;2023-02-15T03:59:06;4.90;56.90
51029;DHT22;37054;52.054;8.600;2023-02-15T04:04:36;4.90;57.10
51029;DHT22;37054;52.054;8.600;2023-02-15T04:07:02;4.90;57.20
51029;DHT22;37054;52.054;8.600;2023-02-15T04:09:28;4.90;57.10
51029;DHT22;37054;52.054;8.600;2023-02-15T04:12:12;4.90;57.00
51029;DHT22;37054;52.054;8.600;2023-02-15T04:14:38;4.80;56.90
51029;DHT22;37054;52.054;8.600;2023-02-15T04:17:22;4.80;56.90
51029;DHT22;37054;52.054;8.600;2023-02-15T04:19:47;4.80;57.00
51029;DHT22;37054;52.054;8.600;2023-02-15T04:22:31;4.80;56.90
51029;DHT22;37054;52.054;8.600;2023-02-15T04:25:16;4.80;56.90
51029;DHT22;37054;52.054;8.600;2023-02-15T04:27:43;4.70;56.80
51029;DHT22;37054;52.054;8.600;2023-02-15T04:30:09;4.70;56.60
51029;DHT22;37054;52.054;8.600;2023-02-15T04:32:35;4.70;56.50
51029;DHT22;37054;52.054;8.600;2023-02-15T04:35:01;4.70;56.10
51029;DHT22;37054;52.054;8.600;2023-02-15T04:37:27;4.70;56.00
51029;DHT22;37054;52.054;8.600;2023-02-15T04:39:53;4.60;55.90
51029;DHT22;37054;52.054;8.600;2023-02-15T04:42:18;4.60;56.00
51029;DHT22;37054;52.054;8.600;2023-02-15T04:44:44;4.60;56.20
51029;DHT22;37054;52.054;8.600;2023-02-15T04:47:10;4.50;56.40
51029;DHT22;37054;52.054;8.600;2023-02-15T04:49:36;4.50;56.60
51029;DHT22;37054;52.054;8.600;2023-02-15T04:52:02;4.50;56.80
51029;DHT22;37054;52.054;8.600;2023-02-15T04:54:27;4.50;57.10
51029;DHT22;37054;52.054;8.600;2023-02-15T04:56:53;4.50;57.20
51029;DHT22;37054;52.054;8.600;2023-02-15T04:59:18;4.50;57.30
51029;DHT22;37054;52.054;8.600;2023-02-15T05:01:50;4.60;57.30
51029;DHT22;37054;52.054;8.600;2023-02-15T05:04:16;4.60;57.20
51029;DHT22;37054;52.054;8.600;2023-02-15T05:06:41;4.60;57.20
51029;DHT22;37054;52.054;8.600;2023-02-15T05:09:07;4.60;57.10
51029;DHT22;37054;52.054;8.600;2023-02-15T05:11:32;4.50;57.00
51029;DHT22;37054;52.054;8.600;2023-02-15T05:13:58;4.50;56.90
51029;DHT22;37054;52.054;8.600;2023-02-15T05:16:23;4.50;56.80
51029;DHT22;37054;52.054;8.600;2023-02-15T05:18:49;4.50;56.60
51029;DHT22;37054;52.054;8.600;2023-02-15T05:21:15;4.50;56.40
51029;DHT22;37054;52.054;8.600;2023-02-15T05:23:41;4.50;56.30
51029;DHT22;37054;52.054;8.600;2023-02-15T05:26:09;4.40;56.10
51029;DHT22;37054;52.054;8.600;2023-02-15T05:28:54;4.40;56.10
51029;DHT22;37054;52.054;8.600;2023-02-15T05:31:20;4.30;56.10
51029;DHT22;37054;52.054;8.600;2023-02-15T05:33:45;4.30;56.00
51029;DHT22;37054;52.054;8.600;2023-02-15T05:36:11;4.30;55.90
51029;DHT22;37054;52.054;8.600;2023-02-15T05:38:37;4.30;56.10
51029;DHT22;37054;52.054;8.600;2023-02-15T05:41:03;4.30;56.50
51029;DHT22;37054;52.054;8.600;2023-02-15T05:43:29;4.30;56.90
51029;DHT22;37054;52.054;8.600;2023-02-15T05:45:55;4.30;57.10
51029;DHT22;37054;52.054;8.600;2023-02-15T05:48:21;4.30;57.10
51029;DHT22;37054;52.054;8.600;2023-02-15T05:50:56;4.40;56.90
51029;DHT22;37054;52.054;8.600;2023-02-15T05:53:22;4.40;56.80
51029;DHT22;37054;52.054;8.600;2023-02-15T05:55:47;4.40;56.60
51029;DHT22;37054;52.054;8.600;2023-02-15T05:58:13;4.30;56.50
51029;DHT22;37054;52.054;8.600;2023-02-15T06:00:39;4.30;56.40
51029;DHT22;37054;52.054;8.600;2023-02-15T06:03:04;4.30;56.40
51029;DHT22;37054;52.054;8.600;2023-02-15T06:05:30;4.30;56.40
51029;DHT22;37054;52.054;8.600;2023-02-15T06:07:56;4.30;56.30
51029;DHT22;37054;52.054;8.600;2023-02-15T06:10:22;4.20;56.40
51029;DHT22;37054;52.054;8.600;2023-02-15T06:12:47;4.20;56.40
51029;DHT22;37054;52.054;8.600;2023-02-15T06:15:13;4.20;56.60
51029;DHT22;37054;52.054;8.600;2023-02-15T06:17:40;4.20;56.70
51029;DHT22;37054;52.054;8.600;2023-02-15T06:20:06;4.20;56.80
51029;DHT22;37054;52.054;8.600;2023-02-15T06:22:33;4.20;56.80
51029;DHT22;37054;52.054;8.600;2023-02-15T06:24:59;4.20;56.60
51029;DHT22;37054;52.054;8.600;2023-02-15T06:27:24;4.20;56.50
51029;DHT22;37054;52.054;8.600;2023-02-15T06:29:50;4.20;56.50
51029;DHT22;37054;52.054;8.600;2023-02-15T06:32:15;4.20;56.60
51029;DHT22;37054;52.054;8.600;2023-02-15T06:34:41;4.20;56.70
51029;DHT22;37054;52.054;8.600;2023-02-15T06:37:06;4.20;56.70
51029;DHT22;37054;52.054;8.600;2023-02-15T06:39:33;4.10;56.60
51029;DHT22;37054;52.054;8.600;2023-02-15T06:41:59;4.20;56.80
51029;DHT22;37054;52.054;8.600;2023-02-15T06:44:25;4.20;56.70
51029;DHT22;37054;52.054;8.600;2023-02-15T06:46:50;4.20;56.60
51029;DHT22;37054;52.054;8.600;2023-02-15T06:49:16;4.20;56.60
51029;DHT22;37054;52.054;8.600;2023-02-15T06:51:43;4.20;56.80
51029;DHT22;37054;52.054;8.600;2023-02-15T06:54:08;4.20;56.90
51029;DHT22;37054;52.054;8.600;2023-02-15T06:56:34;4.20;56.90
51029;DHT22;37054;52.054;8.600;2023-02-15T06:58:59;4.20;57.00
51029;DHT22;37054;52.054;8.600;2023-02-15T07:01:25;4.30;57.30
51029;DHT22;37054;52.054;8.600;2023-02-15T07:03:51;4.40;57.60
51029;DHT22;37054;52.054;8.600;2023-02-15T07:06:16;4.50;58.00
51029;DHT22;37054;52.054;8.600;2023-02-15T07:08:42;4.60;58.20
51029;DHT22;37054;52.054;8.600;2023-02-15T07:11:07;4.70;58.40
51029;DHT22;37054;52.054;8.600;2023-02-15T07:13:52;4.80;59.00
51029;DHT22;37054;52.054;8.600;2023-02-15T07:16:18;5.00;59.60
51029;DHT22;37054;52.054;8.600;2023-02-15T07:18:43;5.30;60.10
51029;DHT22;37054;52.054;8.600;2023-02-15T07:21:09;5.60;60.70
51029;DHT22;37054;52.054;8.600;2023-02-15T07:23:35;5.90;60.90
51029;DHT22;37054;52.054;8.600;2023-02-15T07:26:01;6.20;60.90
51029;DHT22;37054;52.054;8.600;2023-02-15T07:28:27;6.50;60.90
51029;DHT22;37054;52.054;8.600;2023-02-15T07:30:53;6.70;60.60
51029;DHT22;37054;52.054;8.600;2023-02-15T07:33:18;7.00;60.40
51029;DHT22;37054;52.054;8.600;2023-02-15T07:35:55;7.20;60.40
51029;DHT22;37054;52.054;8.600;2023-02-15T07:38:23;7.50;60.50
51029;DHT22;37054;52.054;8.600;2023-02-15T07:40:49;7.70;60.90
51029;DHT22;37054;52.054;8.600;2023-02-15T07:43:14;8.10;61.00
51029;DHT22;37054;52.054;8.600;2023-02-15T07:45:40;8.40;61.30
51029;DHT22;37054;52.054;8.600;2023-02-15T07:48:06;8.70;61.40
51029;DHT22;37054;52.054;8.600;2023-02-15T07:50:32;9.00;61.70
51029;DHT22;37054;52.054;8.600;2023-02-15T07:52:58;9.40;61.90
51029;DHT22;37054;52.054;8.600;2023-02-15T07:55:26;9.70;62.00
51029;DHT22;37054;52.054;8.600;2023-02-15T07:57:51;10.00;61.90
51029;DHT22;37054;52.054;8.600;2023-02-15T08:00:21;10.40;61.70
51029;DHT22;37054;52.054;8.600;2023-02-15T08:02:53;10.70;61.70
51029;DHT22;37054;52.054;8.600;2023-02-15T08:05:41;11.10;61.20
51029;DHT22;37054;52.054;8.600;2023-02-15T08:08:07;11.40;61.10
51029;DHT22;37054;52.054;8.600;2023-02-15T08:10:33;11.70;60.50
51029;DHT22;37054;52.054;8.600;2023-02-15T08:13:17;11.90;60.30
51029;DHT22;37054;52.054;8.600;2023-02-15T08:15:49;12.10;60.40
51029;DHT22;37054;52.054;8.600;2023-02-15T08:18:15;12.40;60.20
51029;DHT22;37054;52.054;8.600;2023-02-15T08:20:41;12.70;60.50
51029;DHT22;37054;52.054;8.600;2023-02-15T08:23:07;13.00;60.60
51029;DHT22;37054;52.054;8.600;2023-02-15T08:25:32;13.30;60.30
51029;DHT22;37054;52.054;8.600;2023-02-15T08:27:59;13.50;60.10
51029;DHT22;37054;52.054;8.600;2023-02-15T08:30:24;13.80;60.40
51029;DHT22;37054;52.054;8.600;2023-02-15T08:32:50;14.10;60.50
51029;DHT22;37054;52.054;8.600;2023-02-15T08:35:16;14.40;59.80
51029;DHT22;37054;52.054;8.600;2023-02-15T08:37:42;14.60;59.20
51029;DHT22;37054;52.054;8.600;2023-02-15T08:40:08;14.80;58.60
51029;DHT22;37054;52.054;8.600;2023-02-15T08:42:34;15.00;58.70
51029;DHT22;37054;52.054;8.600;2023-02-15T08:45:00;15.20;59.30
51029;DHT22;37054;52.054;8.600;2023-02-15T08:47:25;15.50;58.90
51029;DHT22;37054;52.054;8.600;2023-02-15T08:49:51;15.70;58.40
51029;DHT22;37054;52.054;8.600;2023-02-15T08:52:18;15.80;57.30
51029;DHT22;37054;52.054;8.600;2023-02-15T08:54:44;16.00;57.50
51029;DHT22;37054;52.054;8.600;2023-02-15T08:57:09;16.20;57.80
51029;DHT22;37054;52.054;8.600;2023-02-15T08:59:35;16.30;57.00
51029;DHT22;37054;52.054;8.600;2023-02-15T09:02:01;16.40;56.70
51029;DHT22;37054;52.054;8.600;2023-02-15T09:04:28;16.50;56.70
51029;DHT22;37054;52.054;8.600;2023-02-15T09:06:53;16.60;57.90
51029;DHT22;37054;52.054;8.600;2023-02-15T09:09:20;16.80;58.30
51029;DHT22;37054;52.054;8.600;2023-02-15T09:11:47;16.90;57.20
51029;DHT22;37054;52.054;8.600;2023-02-15T09:14:14;17.00;56.90
51029;DHT22;37054;52.054;8.600;2023-02-15T09:16:41;17.00;56.40
51029;DHT22;37054;52.054;8.600;2023-02-15T09:19:07;17.10;57.30
51029;DHT22;37054;52.054;8.600;2023-02-15T09:21:33;17.30;57.30
51029;DHT22;37054;52.054;8.600;2023-02-15T09:24:01;17.40;57.90
51029;DHT22;37054;52.054;8.600;2023-02-15T09:26:28;17.70;58.00
51029;DHT22;37054;52.054;8.600;2023-02-15T09:28:55;17.80;57.30
51029;DHT22;37054;52.054;8.600;2023-02-15T09:31:22;17.80;55.40
51029;DHT22;37054;52.054;8.600;2023-02-15T09:33:48;17.80;55.70
51029;DHT22;37054;52.054;8.600;2023-02-15T09:36:21;17.90;56.10
51029;DHT22;37054;52.054;8.600;2023-02-15T09:38:47;18.00;55.30
51029;DHT22;37054;52.054;8.600;2023-02-15T09:43:49;17.90;55.90
51029;DHT22;37054;52.054;8.600;2023-02-15T09:46:28;17.90;54.90
51029;DHT22;37054;52.054;8.600;2023-02-15T09:49:01;17.90;55.50
51029;DHT22;37054;52.054;8.600;2023-02-15T09:51:43;17.90;54.60
51029;DHT22;37054;52.054;8.600;2023-02-15T09:54:31;18.00;55.60
51029;DHT22;37054;52.054;8.600;2023-02-15T09:56:58;18.10;55.40
51029;DHT22;37054;52.054;8.600;2023-02-15T09:59:39;18.20;54.70
51029;DHT22;37054;52.054;8.600;2023-02-15T10:02:15;18.20;53.80
51029;DHT22;37054;52.054;8.600;2023-02-15T10:05:00;18.10;54.20
51029;DHT22;37054;52.054;8.600;2023-02-15T10:07:34;18.20;54.90
51029;DHT22;37054;52.054;8.600;2023-02-15T10:23:05;19.20;53.50
51029;DHT22;37054;52.054;8.600;2023-02-15T10:28:18;19.40;52.60
51029;DHT22;37054;52.054;8.600;2023-02-15T10:30:48;19.50;52.50
51029;DHT22;37054;52.054;8.600;2023-02-15T10:38:23;19.80;51.70
51029;DHT22;37054;52.054;8.600;2023-02-15T10:46:10;20.20;51.40
51029;DHT22;37054;52.054;8.600;2023-02-15T10:51:08;20.30;49.60
51029;DHT22;37054;52.054;8.600;2023-02-15T10:53:53;20.50;51.40
51029;DHT22;37054;52.054;8.600;2023-02-15T10:56:31;20.60;49.10
51029;DHT22;37054;52.054;8.600;2023-02-15T10:59:23;20.60;48.80
51029;DHT22;37054;52.054;8.600;2023-02-15T11:07:09;20.60;48.50
51029;DHT22;37054;52.054;8.600;2023-02-15T11:09:46;20.70;48.40
51029;DHT22;37054;52.054;8.600;2023-02-15T11:12:17;20.80;47.20
51029;DHT22;37054;52.054;8.600;2023-02-15T11:17:35;20.80;47.50
51029;DHT22;37054;52.054;8.600;2023-02-15T11:22:50;20.80;46.10
51029;DHT22;37054;52.054;8.600;2023-02-15T11:25:28;20.80;46.20
51029;DHT22;37054;52.054;8.600;2023-02-15T11:27:55;20.80;46.70
51029;DHT22;37054;52.054;8.600;2023-02-15T11:30:22;21.00;47.30
51029;DHT22;37054;52.054;8.600;2023-02-15T11:32:49;21.30;47.40
51029;DHT22;37054;52.054;8.600;2023-02-15T11:37:55;21.40;45.20
51029;DHT22;37054;52.054;8.600;2023-02-15T11:40:35;21.30;45.00
51029;DHT22;37054;52.054;8.600;2023-02-15T11:45:50;21.50;44.50
51029;DHT22;37054;52.054;8.600;2023-02-15T11:48:16;21.60;45.60
51029;DHT22;37054;52.054;8.600;2023-02-15T11:50:43;21.70;44.80
51029;DHT22;37054;52.054;8.600;2023-02-15T11:53:16;21.80;44.20
51029;DHT22;37054;52.054;8.600;2023-02-15T11:55:43;21.80;43.40
51029;DHT22;37054;52.054;8.600;2023-02-15T11:58:13;21.80;43.40
51029;DHT22;37054;52.054;8.600;2023-02-15T12:00:47;21.80;43.30
51029;DHT22;37054;52.054;8.600;2023-02-15T12:05:40;22.10;42.70
51029;DHT22;37054;52.054;8.600;2023-02-15T12:08:12;22.20;41.80
51029;DHT22;37054;52.054;8.600;2023-02-15T12:10:55;22.20;41.20
51029;DHT22;37054;52.054;8.600;2023-02-15T12:13:22;22.20;41.80
51029;DHT22;37054;52.054;8.600;2023-02-15T12:15:48;22.00;41.50
51029;DHT22;37054;52.054;8.600;2023-02-15T12:18:19;22.10;42.30
51029;DHT22;37054;52.054;8.600;2023-02-15T12:20:45;22.00;41.30
51029;DHT22;37054;52.054;8.600;2023-02-15T12:23:12;22.00;42.20
51029;DHT22;37054;52.054;8.600;2023-02-15T12:25:42;21.80;40.30
51029;DHT22;37054;52.054;8.600;2023-02-15T12:28:21;21.70;40.50
51029;DHT22;37054;52.054;8.600;2023-02-15T12:30:48;21.60;41.70
51029;DHT22;37054;52.054;8.600;2023-02-15T12:35:40;21.30;41.20
51029;DHT22;37054;52.054;8.600;2023-02-15T12:40:36;21.20;41.40
51029;DHT22;37054;52.054;8.600;2023-02-15T12:43:02;21.10;41.00
51029;DHT22;37054;52.054;8.600;2023-02-15T12:45:37;20.90;40.10
51029;DHT22;37054;52.054;8.600;2023-02-15T12:48:12;20.70;40.80
51029;DHT22;37054;52.054;8.600;2023-02-15T12:50:40;20.50;41.30
51029;DHT22;37054;52.054;8.600;2023-02-15T12:53:07;20.30;41.50
51029;DHT22;37054;52.054;8.600;2023-02-15T12:55:33;20.00;41.50
51029;DHT22;37054;52.054;8.600;2023-02-15T12:58:14;19.60;42.10
51029;DHT22;37054;52.054;8.600;2023-02-15T13:00:41;19.20;41.70
51029;DHT22;37054;52.054;8.600;2023-02-15T13:03:14;18.80;41.50
51029;DHT22;37054;52.054;8.600;2023-02-15T13:05:41;18.40;42.20
51029;DHT22;37054;52.054;8.600;2023-02-15T13:10:40;17.90;43.20
51029;DHT22;37054;52.054;8.600;2023-02-15T13:13:10;17.80;43.10
51029;DHT22;37054;52.054;8.600;2023-02-15T13:15:37;17.60;44.00
51029;DHT22;37054;52.054;8.600;2023-02-15T13:18:04;17.50;44.40
51029;DHT22;37054;52.054;8.600;2023-02-15T13:20:30;17.40;44.30
51029;DHT22;37054;52.054;8.600;2023-02-15T13:22:58;17.30;43.70
51029;DHT22;37054;52.054;8.600;2023-02-15T13:25:26;17.20;43.90
51029;DHT22;37054;52.054;8.600;2023-02-15T13:28:00;17.10;44.70
51029;DHT22;37054;52.054;8.600;2023-02-15T13:30:32;17.10;45.30
51029;DHT22;37054;52.054;8.600;2023-02-15T13:33:02;17.10;45.20
51029;DHT22;37054;52.054;8.600;2023-02-15T13:35:29;17.10;45.60
51029;DHT22;37054;52.054;8.600;2023-02-15T13:40:35;17.10;46.00
51029;DHT22;37054;52.054;8.600;2023-02-15T13:43:13;17.00;46.40
51029;DHT22;37054;52.054;8.600;2023-02-15T13:46:18;17.00;46.30
51029;DHT22;37054;52.054;8.600;2023-02-15T13:53:33;17.00;46.90
51029;DHT22;37054;52.054;8.600;2023-02-15T13:56:04;17.10;46.90
51029;DHT22;37054;52.054;8.600;2023-02-15T14:03:50;17.00;47.30
51029;DHT22;37054;52.054;8.600;2023-02-15T14:08:53;17.00;47.80
51029;DHT22;37054;52.054;8.600;2023-02-15T14:11:36;17.00;47.80
51029;DHT22;37054;52.054;8.600;2023-02-15T14:21:59;16.80;47.60
51029;DHT22;37054;52.054;8.600;2023-02-15T14:24:35;16.80;47.70
51029;DHT22;37054;52.054;8.600;2023-02-15T14:27:21;16.80;47.70
51029;DHT22;37054;52.054;8.600;2023-02-15T14:32:23;16.70;47.70
51029;DHT22;37054;52.054;8.600;2023-02-15T14:34:50;16.70;48.10
51029;DHT22;37054;52.054;8.600;2023-02-15T14:37:19;16.70;48.30
51029;DHT22;37054;52.054;8.600;2023-02-15T14:39:51;16.70;48.50
51029;DHT22;37054;52.054;8.600;2023-02-15T14:45:35;16.60;48.30
51029;DHT22;37054;52.054;8.600;2023-02-15T14:50:40;16.50;48.30
51029;DHT22;37054;52.054;8.600;2023-02-15T14:53:32;16.40;48.60
51029;DHT22;37054;52.054;8.600;2023-02-15T14:56:37;16.40;48.30
51029;DHT22;37054;52.054;8.600;2023-02-15T15:01:16;16.30;48.90
51029;DHT22;37054;52.054;8.600;2023-02-15T15:03:51;16.30;49.30
51029;DHT22;37054;52.054;8.600;2023-02-15T15:06:29;16.30;49.10
51029;DHT22;37054;52.054;8.600;2023-02-15T15:08:58;16.30;48.60
51029;DHT22;37054;52.054;8.600;2023-02-15T15:13:56;16.20;48.90
51029;DHT22;37054;52.054;8.600;2023-02-15T15:18:51;16.00;49.20
51029;DHT22;37054;52.054;8.600;2023-02-15T15:24:01;15.90;49.70
51029;DHT22;37054;52.054;8.600;2023-02-15T15:26:28;15.90;49.80
51029;DHT22;37054;52.054;8.600;2023-02-15T15:28:55;15.80;49.90
51029;DHT22;37054;52.054;8.600;2023-02-15T15:31:41;15.80;49.70
51029;DHT22;37054;52.054;8.600;2023-02-15T15:41:43;15.60;50.30
51029;DHT22;37054;52.054;8.600;2023-02-15T15:49:43;15.40;50.50
51029;DHT22;37054;52.054;8.600;2023-02-15T15:52:18;15.30;50.80
51029;DHT22;37054;52.054;8.600;2023-02-15T15:54:44;15.30;50.70
51029;DHT22;37054;52.054;8.600;2023-02-15T15:59:48;15.20;50.90
51029;DHT22;37054;52.054;8.600;2023-02-15T16:02:17;15.10;50.90
51029;DHT22;37054;52.054;8.600;2023-02-15T16:04:43;15.00;51.20
51029;DHT22;37054;52.054;8.600;2023-02-15T16:12:25;14.80;51.70
51029;DHT22;37054;52.054;8.600;2023-02-15T16:14:51;14.70;51.90
51029;DHT22;37054;52.054;8.600;2023-02-15T16:17:24;14.60;51.90
51029;DHT22;37054;52.054;8.600;2023-02-15T16:19:51;14.50;51.90
51029;DHT22;37054;52.054;8.600;2023-02-15T16:22:21;14.40;52.10
51029;DHT22;37054;52.054;8.600;2023-02-15T16:29:39;14.10;52.10
51029;DHT22;37054;52.054;8.600;2023-02-15T16:32:24;14.00;52.30
51029;DHT22;37054;52.054;8.600;2023-02-15T16:34:57;14.00;52.20
51029;DHT22;37054;52.054;8.600;2023-02-15T16:37:24;13.80;52.30
51029;DHT22;37054;52.054;8.600;2023-02-15T16:39:52;13.80;52.50
51029;DHT22;37054;52.054;8.600;2023-02-15T16:42:18;13.70;52.50
51029;DHT22;37054;52.054;8.600;2023-02-15T16:44:49;13.60;52.50
51029;DHT22;37054;52.054;8.600;2023-02-15T16:47:33;13.50;52.50
51029;DHT22;37054;52.054;8.600;2023-02-15T16:50:01;13.40;52.60
51029;DHT22;37054;52.054;8.600;2023-02-15T16:52:27;13.30;52.90
51029;DHT22;37054;52.054;8.600;2023-02-15T16:54:58;13.20;52.70
51029;DHT22;37054;52.054;8.600;2023-02-15T16:57:33;13.10;53.10
51029;DHT22;37054;52.054;8.600;2023-02-15T17:00:03;13.00;53.20
51029;DHT22;37054;52.054;8.600;2023-02-15T17:02:30;13.00;53.20
51029;DHT22;37054;52.054;8.600;2023-02-15T17:05:16;12.90;53.20
51029;DHT22;37054;52.054;8.600;2023-02-15T17:07:51;12.80;53.20
51029;DHT22;37054;52.054;8.600;2023-02-15T17:10:29;12.70;53.20
51029;DHT22;37054;52.054;8.600;2023-02-15T17:12:56;12.60;53.50
51029;DHT22;37054;52.054;8.600;2023-02-15T17:17:51;12.40;53.70
51029;DHT22;37054;52.054;8.600;2023-02-15T17:20:18;12.40;53.80
51029;DHT22;37054;52.054;8.600;2023-02-15T17:22:44;12.30;53.80
51029;DHT22;37054;52.054;8.600;2023-02-15T17:25:16;12.20;53.80
51029;DHT22;37054;52.054;8.600;2023-02-15T17:27:43;12.20;54.00
51029;DHT22;37054;52.054;8.600;2023-02-15T17:30:17;12.20;54.10
51029;DHT22;37054;52.054;8.600;2023-02-15T17:32:54;12.00;54.10
51029;DHT22;37054;52.054;8.600;2023-02-15T17:35:22;12.00;54.20
51029;DHT22;37054;52.054;8.600;2023-02-15T17:37:50;12.00;54.30
51029;DHT22;37054;52.054;8.600;2023-02-15T17:42:55;11.90;54.30
51029;DHT22;37054;52.054;8.600;2023-02-15T17:46:11;11.80;54.20
51029;DHT22;37054;52.054;8.600;2023-02-15T18:39:27;10.70;55.10
51029;DHT22;37054;52.054;8.600;2023-02-15T18:41:59;10.80;55.00
51029;DHT22;37054;52.054;8.600;2023-02-15T18:44:41;10.70;55.00
51029;DHT22;37054;52.054;8.600;2023-02-15T18:50:14;10.70;54.90
51029;DHT22;37054;52.054;8.600;2023-02-15T18:53:03;10.70;54.80
51029;DHT22;37054;52.054;8.600;2023-02-15T18:55:36;10.70;54.90
51029;DHT22;37054;52.054;8.600;2023-02-15T18:58:49;10.70;54.80
51029;DHT22;37054;52.054;8.600;2023-02-15T19:01:39;10.70;54.80
51029;DHT22;37054;52.054;8.600;2023-02-15T19:10:39;10.60;54.90
51029;DHT22;37054;52.054;8.600;2023-02-15T19:13:08;10.60;54.90
51029;DHT22;37054;52.054;8.600;2023-02-15T19:15:50;10.50;54.70
51029;DHT22;37054;52.054;8.600;2023-02-15T19:18:31;10.50;54.80
51029;DHT22;37054;52.054;8.600;2023-02-15T19:41:15;10.20;54.40
51029;DHT22;37054;52.054;8.600;2023-02-15T19:44:03;10.20;54.30
51029;DHT22;37054;52.054;8.600;2023-02-15T19:46:31;10.10;54.20
51029;DHT22;37054;52.054;8.600;2023-02-15T19:49:01;10.10;54.30
51029;DHT22;37054;52.054;8.600;2023-02-15T19:51:55;10.10;54.30
51029;DHT22;37054;52.054;8.600;2023-02-15T19:54:27;10.10;54.40
51029;DHT22;37054;52.054;8.600;2023-02-15T19:56:55;10.00;54.40